createdAt,value
2019-02-19T00:00:51.334Z,98071.00
2019-02-19T00:05:58.339Z,98068.00
2019-02-19T00:11:06.555Z,98072.00
2019-02-19T00:16:13.511Z,98064.00
2019-02-19T00:21:20.111Z,98058.00
2019-02-19T00:26:26.351Z,98072.00
2019-02-19T00:31:32.402Z,98050.00
2019-02-19T00:36:39.327Z,98045.00
2019-02-19T00:41:45.855Z,98055.00
2019-02-19T00:46:52.572Z,98052.00
2019-02-19T00:52:20.932Z,98046.00
2019-02-19T00:57:26.925Z,98057.00
2019-02-19T01:02:32.917Z,98050.00
2019-02-19T01:07:38.900Z,98045.00
2019-02-19T01:12:44.861Z,98049.00
2019-02-19T01:17:50.831Z,98037.00
2019-02-19T01:22:58.204Z,98037.00
2019-02-19T01:28:25.107Z,98036.00
2019-02-19T01:33:31.646Z,98027.00
2019-02-19T01:38:38.560Z,98017.00
2019-02-19T01:43:45.640Z,98011.00
2019-02-19T01:48:52.766Z,98012.00
2019-02-19T01:53:59.615Z,98005.00
2019-02-19T01:59:06.517Z,98007.00
2019-02-19T02:04:13.703Z,98006.00
2019-02-19T02:09:21.157Z,97998.00
2019-02-19T02:14:27.175Z,97995.00
2019-02-19T02:19:33.146Z,98007.00
2019-02-19T02:24:40.162Z,98005.00
2019-02-19T02:29:47.389Z,98017.00
2019-02-19T02:34:53.992Z,98009.00
2019-02-19T02:40:19.304Z,98001.00
2019-02-19T02:45:25.549Z,97997.00
2019-02-19T02:50:31.543Z,98011.00
2019-02-19T02:55:37.557Z,98013.00
2019-02-19T03:00:44.067Z,98021.00
2019-02-19T03:06:03.513Z,98012.00
2019-02-19T03:11:10.586Z,98010.00
2019-02-19T03:16:18.788Z,97986.00
2019-02-19T03:21:24.757Z,97989.00
2019-02-19T03:26:43.536Z,97997.00
2019-02-19T03:31:50.126Z,97989.00
2019-02-19T03:36:57.115Z,97982.00
2019-02-19T03:42:04.256Z,97991.00
2019-02-19T03:47:11.143Z,97993.00
2019-02-19T03:52:18.224Z,97996.00
2019-02-19T03:57:24.295Z,98002.00
2019-02-19T04:02:31.149Z,98003.00
2019-02-19T04:07:37.163Z,98010.00
2019-02-19T04:12:43.264Z,97999.00
2019-02-19T04:18:08.577Z,97990.00
2019-02-19T04:23:15.459Z,98002.00
2019-02-19T04:28:22.368Z,97991.00
2019-02-19T04:33:28.413Z,97992.00
2019-02-19T04:38:35.314Z,97983.00
2019-02-19T04:43:54.955Z,97999.00
2019-02-19T04:49:01.958Z,97998.00
2019-02-19T04:54:08.770Z,98010.00
2019-02-19T04:59:15.908Z,98006.00
2019-02-19T05:04:23.064Z,98004.00
2019-02-19T05:09:31.742Z,98012.00
2019-02-19T05:14:38.764Z,98002.00
2019-02-19T05:19:45.844Z,98010.00
2019-02-19T05:24:52.440Z,98008.00
2019-02-19T05:30:00.277Z,98021.00
2019-02-19T05:35:09.688Z,98016.00
2019-02-19T05:40:16.853Z,98026.00
2019-02-19T05:45:44.092Z,98024.00
2019-02-19T05:50:51.277Z,98031.00
2019-02-19T05:55:58.163Z,98038.00
2019-02-19T06:01:05.008Z,98038.00
2019-02-19T06:06:11.935Z,98039.00
2019-02-19T06:11:19.015Z,98048.00
2019-02-19T06:16:25.003Z,98037.00
2019-02-19T06:21:31.119Z,98038.00
2019-02-19T06:26:37.833Z,98051.00
2019-02-19T06:31:44.888Z,98054.00
2019-02-19T06:36:51.803Z,98059.00
2019-02-19T06:41:59.381Z,98067.00
2019-02-19T06:47:07.555Z,98081.00
2019-02-19T06:52:14.075Z,98078.00
2019-02-19T06:57:20.559Z,98086.00
2019-02-19T07:02:33.950Z,98083.00
2019-02-19T07:07:39.972Z,98079.00
2019-02-19T07:12:46.863Z,98093.00
2019-02-19T07:17:53.963Z,98102.00
2019-02-19T07:23:00.977Z,98103.00
2019-02-19T07:28:08.293Z,98106.00
2019-02-19T07:33:15.033Z,98110.00
2019-02-19T07:38:21.699Z,98092.00
2019-02-19T07:43:28.118Z,98103.00
2019-02-19T07:48:35.021Z,98092.00
2019-02-19T07:53:41.059Z,98091.00
2019-02-19T07:58:48.102Z,98101.00
2019-02-19T08:03:55.197Z,98088.00
2019-02-19T08:09:02.099Z,98098.00
2019-02-19T08:14:10.267Z,98085.00
2019-02-19T08:19:17.587Z,98089.00
2019-02-19T08:24:23.721Z,98092.00
2019-02-19T08:29:29.790Z,98095.00
2019-02-19T08:34:35.911Z,98095.00
2019-02-19T08:39:41.967Z,98099.00
2019-02-19T08:44:49.716Z,98108.00
2019-02-19T08:49:58.082Z,98110.00
2019-02-19T08:55:06.591Z,98114.00
2019-02-19T09:00:13.823Z,98116.00
2019-02-19T09:05:20.870Z,98116.00
2019-02-19T09:10:27.204Z,98119.00
2019-02-19T09:15:34.366Z,98124.00
2019-02-19T09:20:41.803Z,98136.00
2019-02-19T09:25:48.649Z,98141.00
2019-02-19T09:30:55.272Z,98133.00
2019-02-19T09:36:02.935Z,98131.00
2019-02-19T09:41:10.443Z,98142.00
2019-02-19T09:46:17.407Z,98146.00
2019-02-19T09:51:25.007Z,98151.00
2019-02-19T09:56:32.065Z,98147.00
2019-02-19T10:01:38.077Z,98149.00
2019-02-19T10:06:45.449Z,98148.00
2019-02-19T10:11:52.529Z,98162.00
2019-02-19T10:16:59.630Z,98165.00
2019-02-19T10:22:06.696Z,98168.00
2019-02-19T10:27:13.570Z,98163.00
2019-02-19T10:32:20.591Z,98167.00
2019-02-19T10:37:27.250Z,98151.00
2019-02-19T10:42:33.461Z,98166.00
2019-02-19T10:47:40.047Z,98167.00
2019-02-19T10:52:47.502Z,98171.00
2019-02-19T10:57:56.239Z,98167.00
2019-02-19T11:03:04.423Z,98170.00
2019-02-19T11:08:11.430Z,98172.00
2019-02-19T11:13:18.389Z,98160.00
2019-02-19T11:18:28.390Z,98156.00
2019-02-19T11:23:54.133Z,98154.00
2019-02-19T11:29:01.980Z,98155.00
2019-02-19T11:34:10.453Z,98159.00
2019-02-19T11:39:17.861Z,98148.00
2019-02-19T11:44:25.135Z,98163.00
2019-02-19T11:49:31.295Z,98161.00
2019-02-19T11:54:38.051Z,98165.00
2019-02-19T11:59:44.071Z,98154.00
2019-02-19T12:04:50.752Z,98157.00
2019-02-19T12:09:56.816Z,98158.00
2019-02-19T12:15:04.101Z,98155.00
2019-02-19T12:20:14.210Z,98161.00
2019-02-19T12:25:21.161Z,98158.00
2019-02-19T12:30:28.810Z,98166.00
2019-02-19T12:35:34.906Z,98164.00
2019-02-19T12:40:42.267Z,98169.00
2019-02-19T12:45:48.861Z,98164.00
2019-02-19T12:50:55.918Z,98157.00
2019-02-19T12:56:04.182Z,98158.00
2019-02-19T13:01:12.326Z,98173.00
2019-02-19T13:06:19.258Z,98170.00
2019-02-19T13:11:25.300Z,98167.00
2019-02-19T13:16:32.307Z,98172.00
2019-02-19T13:21:39.510Z,98174.00
2019-02-19T13:26:49.168Z,98174.00
2019-02-19T13:31:56.409Z,98171.00
2019-02-19T13:37:23.619Z,98168.00
2019-02-19T13:42:31.483Z,98169.00
2019-02-19T13:47:37.629Z,98169.00
2019-02-19T13:52:46.452Z,98170.00
2019-02-19T13:57:53.571Z,98187.00
2019-02-19T14:03:00.353Z,98197.00
2019-02-19T14:08:14.200Z,98196.00
2019-02-19T14:13:15.328Z,98194.00
2019-02-19T14:18:42.528Z,98182.00
2019-02-19T14:24:03.787Z,98192.00
2019-02-19T14:29:30.909Z,98181.00
2019-02-19T14:34:47.914Z,98185.00
2019-02-19T14:39:56.635Z,98188.00
2019-02-19T14:45:05.358Z,98179.00
2019-02-19T14:50:23.150Z,98165.00
2019-02-19T14:55:37.175Z,98168.00
2019-02-19T15:00:48.863Z,98174.00
2019-02-19T15:06:00.295Z,98166.00
2019-02-19T15:11:10.215Z,98162.00
2019-02-19T15:16:33.784Z,98169.00
2019-02-19T15:21:42.634Z,98163.00
2019-02-19T15:26:51.397Z,98164.00
2019-02-19T15:32:12.070Z,98138.00
2019-02-19T15:37:29.872Z,98152.00
2019-02-19T15:42:55.848Z,98155.00
2019-02-19T15:48:04.766Z,98159.00
2019-02-19T15:53:17.039Z,98156.00
2019-02-19T15:58:37.168Z,98156.00
2019-02-19T16:03:51.897Z,98186.00
2019-02-19T16:09:03.557Z,98190.00
2019-02-19T16:14:28.856Z,98188.00
2019-02-19T16:19:36.443Z,98199.00
2019-02-19T16:25:01.328Z,98203.00
2019-02-19T16:30:20.783Z,98192.00
2019-02-19T16:35:40.550Z,98202.00
2019-02-19T16:40:49.005Z,98205.00
2019-02-19T16:46:00.803Z,98201.00
2019-02-19T16:51:09.299Z,98215.00
2019-02-19T16:56:21.615Z,98205.00
2019-02-19T17:01:29.366Z,98204.00
2019-02-19T17:06:40.601Z,98213.00
2019-02-19T17:11:49.559Z,98214.00
2019-02-19T17:17:01.445Z,98216.00
2019-02-19T17:22:26.529Z,98215.00
2019-02-19T17:27:36.956Z,98224.00
2019-02-19T17:32:55.528Z,98234.00
2019-02-19T17:38:14.725Z,98229.00
2019-02-19T17:43:18.917Z,98240.00
2019-02-19T17:48:43.330Z,98246.00
2019-02-19T17:54:09.375Z,98250.00
2019-02-19T17:59:18.364Z,98252.00
2019-02-19T18:04:28.825Z,98267.00
2019-02-19T18:10:00.767Z,98274.00
2019-02-19T18:15:10.048Z,98273.00
2019-02-19T18:20:36.541Z,98275.00
2019-02-19T18:25:43.721Z,98281.00
2019-02-19T18:30:50.814Z,98286.00
2019-02-19T18:35:58.488Z,98297.00
2019-02-19T18:41:06.709Z,98295.00
2019-02-19T18:46:15.926Z,98288.00
2019-02-19T18:51:44.184Z,98286.00
2019-02-19T18:56:50.757Z,98284.00
2019-02-19T19:01:57.251Z,98304.00
2019-02-19T19:07:04.026Z,98302.00
2019-02-19T19:12:31.729Z,98302.00
2019-02-19T19:17:37.826Z,98306.00
2019-02-19T19:23:05.728Z,98307.00
2019-02-19T19:28:12.926Z,98308.00
2019-02-19T19:33:19.980Z,98310.00
2019-02-19T19:38:26.045Z,98313.00
2019-02-19T19:43:33.431Z,98310.00
2019-02-19T19:48:51.996Z,98317.00
2019-02-19T19:53:59.264Z,98317.00
2019-02-19T19:59:06.258Z,98314.00
2019-02-19T20:04:13.530Z,98325.00
2019-02-19T20:09:20.435Z,98322.00
2019-02-19T20:14:26.392Z,98317.00
2019-02-19T20:19:32.605Z,98323.00
2019-02-19T20:24:40.718Z,98327.00
2019-02-19T20:29:47.119Z,98327.00
2019-02-19T20:34:54.021Z,98319.00
2019-02-19T20:40:01.130Z,98309.00
2019-02-19T20:45:17.483Z,98320.00
2019-02-19T20:50:23.541Z,98310.00
2019-02-19T20:55:36.991Z,98317.00
2019-02-19T21:00:39.166Z,98318.00
2019-02-19T21:05:46.356Z,98321.00
2019-02-19T21:10:54.402Z,98323.00
2019-02-19T21:16:01.628Z,98335.00
2019-02-19T21:21:08.293Z,98333.00
2019-02-19T21:26:15.447Z,98326.00
2019-02-19T21:31:22.451Z,98315.00
2019-02-19T21:36:28.748Z,98326.00
2019-02-19T21:41:34.786Z,98323.00
2019-02-19T21:46:41.930Z,98325.00
2019-02-19T21:52:10.272Z,98324.00
2019-02-19T21:57:17.502Z,98324.00
2019-02-19T22:02:23.574Z,98327.00
2019-02-19T22:07:30.683Z,98324.00
2019-02-19T22:12:36.746Z,98331.00
2019-02-19T22:17:42.816Z,98319.00
2019-02-19T22:22:49.811Z,98321.00
2019-02-19T22:27:56.755Z,98328.00
2019-02-19T22:33:03.610Z,98325.00
2019-02-19T22:38:10.510Z,98329.00
2019-02-19T22:43:16.951Z,98347.00
2019-02-19T22:48:22.903Z,98350.00
2019-02-19T22:53:33.241Z,98354.00
2019-02-19T22:58:40.320Z,98348.00
2019-02-19T23:03:47.451Z,98353.00
2019-02-19T23:08:54.527Z,98352.00
2019-02-19T23:14:02.564Z,98354.00
2019-02-19T23:19:09.751Z,98349.00
2019-02-19T23:24:16.531Z,98355.00
2019-02-19T23:29:22.968Z,98356.00
2019-02-19T23:34:28.984Z,98358.00
2019-02-19T23:39:43.395Z,98363.00
2019-02-19T23:44:43.685Z,98356.00
2019-02-19T23:49:50.479Z,98375.00
2019-02-19T23:54:57.315Z,98362.00
